This is the latest recevied weather packets stored in our database for station/object WB8ZGM-13. If no packets are shown the sender has not sent any weather packets the latest 10 day(s).
| Time | Temp. | Humidity | Pressure | Rain* | Wind** | Luminosity | Snow |
|---|---|---|---|---|---|---|---|
| 1777501707 | 20.56° C | 79% | 995 hPa | 0 mm | - | - | - |
| 1777500807 | 20° C | 80% | 994.8 hPa | 0 mm | - | - | - |
| 1777499877 | 20° C | 84% | 994.8 hPa | 0 mm | - | - | - |
| 1777498977 | 20.56° C | 81% | 994.7 hPa | 0 mm | - | - | - |
| 1777498077 | 21.11° C | 81% | 994.7 hPa | 0 mm | - | - | - |
| 1777497147 | 21.11° C | 81% | 994.6 hPa | 0 mm | - | - | - |
| 1777496247 | 21.11° C | 82% | 994.6 hPa | 0 mm | - | - | - |
| 1777495346 | 21.67° C | 80% | 994.8 hPa | 0 mm | - | - | - |
| 1777494416 | 22.22° C | 78% | 994.9 hPa | 0 mm | - | - | - |
| 1777493516 | 23.33° C | 78% | 995 hPa | 0 mm | - | - | - |
| 1777492586 | 22.22° C | 81% | 995.1 hPa | 0 mm | - | - | - |
| 1777491686 | 23.33° C | 78% | 995.2 hPa | 0 mm | - | - | - |
| 1777490786 | 23.33° C | 79% | 995 hPa | 0 mm | - | - | - |
| 1777489886 | 22.78° C | 81% | 994.9 hPa | 0 mm | - | - | - |
| 1777488986 | 23.89° C | 78% | 994.7 hPa | 0 mm | - | - | - |
| 1777488086 | 23.89° C | 77% | 994.8 hPa | 0 mm | - | - | - |
| 1777487186 | 24.44° C | 79% | 994.7 hPa | 0 mm | - | - | - |
| 1777486256 | 23.89° C | 80% | 994.8 hPa | 0 mm | - | - | - |
| 1777485356 | 22.78° C | 85% | 994.6 hPa | 0 mm | - | - | - |
| 1777484426 | 25° C | 79% | 994.3 hPa | 0 mm | - | - | - |
| 1777483525 | 25.56° C | 83% | 994.5 hPa | 0 mm | - | - | - |
| 1777482625 | 23.33° C | 89% | 994.5 hPa | 0 mm | - | - | - |
| 1777481725 | 23.33° C | 89% | 994.5 hPa | 0 mm | - | - | - |
| 1777480825 | 22.78° C | 90% | 994.5 hPa | 0 mm | - | - | - |
| 1777479925 | 22.78° C | 93% | 994.5 hPa | 0 mm | - | - | - |
* Rain latest hour (hover to see other rain measurements)
** Current wind speed in m/s (hover to see current wind gust speed)